createdAt,value
2023-01-27T00:02:12.022Z,101766.31
2023-01-27T00:04:35.711Z,101772.53
2023-01-27T00:06:59.236Z,101768.63
2023-01-27T00:09:22.851Z,101771.44
2023-01-27T00:12:04.983Z,101771.19
2023-01-27T00:14:28.646Z,101773.78
2023-01-27T00:16:52.201Z,101775.81
2023-01-27T00:19:19.788Z,101774.81
2023-01-27T00:22:00.551Z,101771.75
2023-01-27T00:24:39.573Z,101772.06
2023-01-27T00:27:04.683Z,101771.75
2023-01-27T00:29:28.335Z,101765.38
2023-01-27T00:32:09.040Z,101774.41
2023-01-27T00:34:32.691Z,101770.22
2023-01-27T00:36:56.206Z,101777.50
2023-01-27T00:39:19.783Z,101771.22
2023-01-27T00:41:43.398Z,101771.75
2023-01-27T00:44:12.803Z,101778.81
2023-01-27T00:46:36.968Z,101776.91
2023-01-27T00:49:00.592Z,101777.91
2023-01-27T00:51:24.760Z,101785.53
2023-01-27T00:53:49.199Z,101782.81
2023-01-27T00:56:14.439Z,101786.41
2023-01-27T00:58:39.462Z,101782.88
2023-01-27T01:01:07.175Z,101782.94
2023-01-27T01:03:32.272Z,101786.94
2023-01-27T01:05:55.807Z,101781.81
2023-01-27T01:08:19.388Z,101787.63
2023-01-27T01:10:42.970Z,101792.84
2023-01-27T01:13:08.024Z,101794.75
2023-01-27T01:15:31.555Z,101796.31
2023-01-27T01:17:56.484Z,101797.78
2023-01-27T01:20:20.199Z,101795.91
2023-01-27T01:22:43.801Z,101801.97
2023-01-27T01:25:08.486Z,101802.47
2023-01-27T01:27:32.031Z,101800.84
2023-01-27T01:29:55.658Z,101796.31
2023-01-27T01:32:19.511Z,101796.72
2023-01-27T01:34:45.242Z,101803.44
2023-01-27T01:37:08.818Z,101798.91
2023-01-27T01:39:33.137Z,101810.13
2023-01-27T01:41:56.702Z,101797.78
2023-01-27T01:44:25.440Z,101811.00
2023-01-27T01:46:49.014Z,101801.56
2023-01-27T01:49:12.579Z,101807.03
2023-01-27T01:51:43.379Z,101812.13
2023-01-27T01:54:12.648Z,101809.63
2023-01-27T01:56:40.919Z,101801.88
2023-01-27T01:59:09.775Z,101814.56
2023-01-27T02:01:33.461Z,101814.03
2023-01-27T02:04:01.859Z,101812.22
2023-01-27T02:06:25.544Z,101802.75
2023-01-27T02:08:52.893Z,101810.56
2023-01-27T02:11:16.918Z,101804.13
2023-01-27T02:13:41.367Z,101807.50
2023-01-27T02:16:05.996Z,101804.31
2023-01-27T02:18:29.810Z,101808.19
2023-01-27T02:20:55.329Z,101802.84
2023-01-27T02:23:38.394Z,101809.00
2023-01-27T02:26:10.760Z,101803.94
2023-01-27T02:28:34.691Z,101805.22
2023-01-27T02:30:58.679Z,101804.28
2023-01-27T02:33:22.294Z,101802.91
2023-01-27T02:35:53.512Z,101804.00
2023-01-27T02:38:19.003Z,101803.69
2023-01-27T02:40:43.503Z,101804.47
2023-01-27T02:43:09.504Z,101811.59
2023-01-27T02:45:33.322Z,101818.22
2023-01-27T02:47:56.989Z,101819.34
2023-01-27T02:50:20.492Z,101814.47
2023-01-27T02:52:44.123Z,101817.03
2023-01-27T02:55:10.818Z,101823.78
2023-01-27T02:57:35.519Z,101828.72
2023-01-27T03:00:26.449Z,101834.91
2023-01-27T03:02:51.242Z,101826.16
2023-01-27T03:05:15.879Z,101822.69
2023-01-27T03:07:39.727Z,101829.94
2023-01-27T03:10:03.262Z,101821.34
2023-01-27T03:12:26.847Z,101825.63
2023-01-27T03:15:09.688Z,101819.59
2023-01-27T03:17:53.125Z,101817.63
2023-01-27T03:20:17.012Z,101817.47
2023-01-27T03:22:40.582Z,101820.13
2023-01-27T03:25:05.883Z,101823.53
2023-01-27T03:27:29.546Z,101812.56
2023-01-27T03:30:20.774Z,101823.16
2023-01-27T03:32:54.838Z,101826.66
2023-01-27T03:35:49.196Z,101832.28
2023-01-27T03:38:35.776Z,101834.84
2023-01-27T03:41:16.594Z,101833.31
2023-01-27T03:43:57.581Z,101827.13
2023-01-27T03:46:22.409Z,101832.06
2023-01-27T03:48:51.377Z,101832.66
2023-01-27T03:51:14.932Z,101841.00
2023-01-27T03:53:39.136Z,101833.84
2023-01-27T03:56:02.837Z,101828.38
2023-01-27T03:58:29.037Z,101838.16
2023-01-27T04:00:55.879Z,101834.47
2023-01-27T04:03:38.236Z,101826.19
2023-01-27T04:06:24.596Z,101820.63
2023-01-27T04:08:48.211Z,101823.97
2023-01-27T04:11:31.690Z,101824.84
2023-01-27T04:13:55.441Z,101825.53
2023-01-27T04:16:19.852Z,101820.97
2023-01-27T04:18:43.432Z,101820.69
2023-01-27T04:21:08.647Z,101823.09
2023-01-27T04:23:32.237Z,101822.13
2023-01-27T04:25:56.644Z,101832.72
2023-01-27T04:28:37.341Z,101823.16
2023-01-27T04:31:03.880Z,101817.06
2023-01-27T04:33:27.489Z,101824.78
2023-01-27T04:35:51.162Z,101824.34
2023-01-27T04:38:16.086Z,101824.34
2023-01-27T04:40:39.834Z,101823.00
2023-01-27T04:43:03.344Z,101832.25
2023-01-27T04:45:26.937Z,101836.34
2023-01-27T04:47:50.578Z,101836.59
2023-01-27T04:50:14.108Z,101831.59
2023-01-27T04:52:37.613Z,101833.34
2023-01-27T04:55:02.567Z,101834.41
2023-01-27T04:57:27.461Z,101827.34
2023-01-27T04:59:51.122Z,101833.00
2023-01-27T05:02:14.702Z,101832.56
2023-01-27T05:04:38.455Z,101838.22
2023-01-27T05:07:02.468Z,101840.47
2023-01-27T05:09:26.323Z,101849.88
2023-01-27T05:11:51.274Z,101852.84
2023-01-27T05:14:15.030Z,101859.53
2023-01-27T05:16:40.468Z,101859.56
2023-01-27T05:19:04.031Z,101860.78
2023-01-27T05:21:30.830Z,101855.81
2023-01-27T05:23:54.607Z,101870.09
2023-01-27T05:26:22.322Z,101869.38
2023-01-27T05:28:49.427Z,101869.06
2023-01-27T05:31:15.474Z,101870.50
2023-01-27T05:33:39.247Z,101875.88
2023-01-27T05:36:06.367Z,101887.00
2023-01-27T05:38:30.968Z,101882.16
2023-01-27T05:40:58.819Z,101877.56
2023-01-27T05:43:22.384Z,101882.47
2023-01-27T05:45:47.281Z,101881.53
2023-01-27T05:48:10.829Z,101880.59
2023-01-27T05:50:34.343Z,101882.88
2023-01-27T05:52:57.934Z,101892.47
2023-01-27T05:55:21.465Z,101886.22
2023-01-27T05:57:45.206Z,101898.00
2023-01-27T06:00:10.846Z,101890.75
2023-01-27T06:02:35.851Z,101885.38
2023-01-27T06:04:59.365Z,101880.06
2023-01-27T06:07:22.965Z,101880.91
2023-01-27T06:09:46.479Z,101888.63
2023-01-27T06:12:10.035Z,101887.50
2023-01-27T06:14:33.572Z,101885.31
2023-01-27T06:16:57.119Z,101887.63
2023-01-27T06:19:22.263Z,101888.53
2023-01-27T06:21:45.921Z,101890.03
2023-01-27T06:24:11.293Z,101895.84
2023-01-27T06:26:36.191Z,101891.41
2023-01-27T06:28:59.854Z,101890.59
2023-01-27T06:31:23.592Z,101898.38
2023-01-27T06:33:47.363Z,101898.38
2023-01-27T06:36:15.670Z,101897.69
2023-01-27T06:38:39.642Z,101899.34
2023-01-27T06:41:03.508Z,101897.81
2023-01-27T06:43:27.179Z,101905.56
2023-01-27T06:45:51.682Z,101909.00
2023-01-27T06:48:15.179Z,101907.25
2023-01-27T06:50:38.815Z,101899.97
2023-01-27T06:53:06.207Z,101899.34
2023-01-27T06:55:30.218Z,101901.16
2023-01-27T06:57:53.727Z,101906.91
2023-01-27T07:00:19.053Z,101915.00
2023-01-27T07:02:42.574Z,101915.84
2023-01-27T07:05:06.829Z,101917.66
2023-01-27T07:07:30.335Z,101925.75
2023-01-27T07:09:55.257Z,101923.16
2023-01-27T07:12:18.770Z,101930.59
2023-01-27T07:14:42.358Z,101936.81
2023-01-27T07:17:05.879Z,101927.38
2023-01-27T07:19:29.496Z,101937.13
2023-01-27T07:21:52.974Z,101939.53
2023-01-27T07:24:16.551Z,101939.53
2023-01-27T07:26:41.677Z,101940.09
2023-01-27T07:29:05.567Z,101946.72
2023-01-27T07:31:29.278Z,101945.69
2023-01-27T07:33:54.433Z,101943.75
2023-01-27T07:36:17.987Z,101943.97
2023-01-27T07:38:41.676Z,101936.63
2023-01-27T07:41:06.154Z,101939.94
2023-01-27T07:43:31.081Z,101941.28
2023-01-27T07:45:57.010Z,101943.47
2023-01-27T07:48:20.668Z,101942.13
2023-01-27T07:50:44.187Z,101949.88
2023-01-27T07:53:07.801Z,101944.47
2023-01-27T07:55:31.889Z,101951.09
2023-01-27T07:57:56.057Z,101961.84
2023-01-27T08:00:22.841Z,101951.88
2023-01-27T08:02:46.382Z,101957.56
2023-01-27T08:05:10.746Z,101955.28
2023-01-27T08:07:34.521Z,101956.94
2023-01-27T08:09:58.071Z,101963.31
2023-01-27T08:12:21.622Z,101956.84
2023-01-27T08:14:45.112Z,101970.13
2023-01-27T08:17:10.181Z,101963.63
2023-01-27T08:19:33.713Z,101965.00
2023-01-27T08:21:57.550Z,101959.84
2023-01-27T08:24:21.178Z,101958.16
2023-01-27T08:26:44.813Z,101966.19
2023-01-27T08:29:08.379Z,101965.50
2023-01-27T08:31:31.987Z,101971.53
2023-01-27T08:33:56.898Z,101969.06
2023-01-27T08:36:21.784Z,101971.09
2023-01-27T08:38:46.648Z,101980.22
2023-01-27T08:41:13.348Z,101977.59
2023-01-27T08:43:37.278Z,101977.72
2023-01-27T08:46:01.362Z,101975.78
2023-01-27T08:48:24.883Z,101984.38
2023-01-27T08:50:51.260Z,101987.63
2023-01-27T08:53:14.883Z,101984.69
2023-01-27T08:55:38.438Z,101994.09
2023-01-27T08:58:02.143Z,101986.56
2023-01-27T09:00:26.671Z,101989.63
2023-01-27T09:02:51.510Z,101990.34
2023-01-27T09:05:16.059Z,101994.63
2023-01-27T09:07:41.258Z,101989.47
2023-01-27T09:10:20.067Z,102005.13
2023-01-27T09:12:44.782Z,102001.63
2023-01-27T09:15:09.915Z,102003.44
2023-01-27T09:17:33.458Z,102002.66
2023-01-27T09:19:56.970Z,102010.13
2023-01-27T09:22:20.620Z,102011.97
2023-01-27T09:24:45.604Z,102017.97
2023-01-27T09:27:09.183Z,102019.31
2023-01-27T09:29:32.686Z,102022.50
2023-01-27T09:31:56.304Z,102019.72
2023-01-27T09:34:20.513Z,102021.53
2023-01-27T09:36:50.076Z,102027.81
2023-01-27T09:39:14.333Z,102021.09
2023-01-27T09:42:21.339Z,102029.38
2023-01-27T09:45:22.264Z,102035.84
2023-01-27T09:48:14.091Z,102037.94
2023-01-27T09:50:48.117Z,102037.63
2023-01-27T09:53:57.357Z,102030.97
2023-01-27T09:56:35.073Z,102033.94
2023-01-27T09:59:13.587Z,102037.97
2023-01-27T10:01:57.074Z,102043.25
2023-01-27T10:04:57.054Z,102043.75
2023-01-27T10:08:06.619Z,102039.88
2023-01-27T10:10:53.562Z,102038.34
2023-01-27T10:13:31.250Z,102035.66
2023-01-27T10:16:20.315Z,102037.38
2023-01-27T10:19:19.363Z,102040.38
2023-01-27T10:21:52.902Z,102044.44
2023-01-27T10:24:34.199Z,102048.38
2023-01-27T10:27:04.287Z,102044.19
2023-01-27T10:29:36.390Z,102048.00
2023-01-27T10:32:09.565Z,102046.84
2023-01-27T10:34:38.389Z,102054.13
2023-01-27T10:37:16.436Z,102058.94
2023-01-27T10:39:47.091Z,102058.03
2023-01-27T10:42:24.231Z,102055.47
2023-01-27T10:45:07.750Z,102044.72
2023-01-27T10:47:48.905Z,102046.31
2023-01-27T10:50:16.939Z,102051.03
2023-01-27T10:52:46.550Z,102051.66
2023-01-27T10:55:21.856Z,102053.16
2023-01-27T10:57:51.528Z,102052.94
2023-01-27T11:00:57.866Z,102057.34
2023-01-27T11:03:10.662Z,102059.13
2023-01-27T11:05:39.165Z,102061.69
2023-01-27T11:08:08.725Z,102065.94
2023-01-27T11:10:37.726Z,102060.97
2023-01-27T11:13:02.914Z,102060.97
2023-01-27T11:15:31.523Z,102068.47
2023-01-27T11:18:05.406Z,102061.91
2023-01-27T11:20:35.170Z,102057.44
2023-01-27T11:23:05.339Z,102060.84
2023-01-27T11:25:46.200Z,102058.97
2023-01-27T11:28:24.972Z,102051.72
2023-01-27T11:30:57.330Z,102054.53
2023-01-27T11:33:29.918Z,102052.50
2023-01-27T11:35:54.787Z,102053.09
2023-01-27T11:38:22.849Z,102054.91
2023-01-27T11:40:48.413Z,102052.50
2023-01-27T11:43:16.100Z,102049.19
2023-01-27T11:45:39.806Z,102046.09
2023-01-27T11:48:07.452Z,102049.59
2023-01-27T11:50:35.748Z,102043.19
2023-01-27T11:53:11.117Z,102048.47
2023-01-27T11:55:39.833Z,102052.59
2023-01-27T11:58:17.400Z,102049.88
2023-01-27T12:00:46.998Z,102052.41
2023-01-27T12:03:21.320Z,102057.38
2023-01-27T12:05:51.408Z,102056.28
2023-01-27T12:08:42.619Z,102060.59
2023-01-27T12:11:24.114Z,102058.78
2023-01-27T12:13:53.637Z,102056.34
2023-01-27T12:16:17.690Z,102062.13
2023-01-27T12:18:53.756Z,102050.97
2023-01-27T12:21:19.947Z,102052.63
2023-01-27T12:23:51.500Z,102053.47
2023-01-27T12:26:15.242Z,102047.84
2023-01-27T12:28:43.636Z,102053.47
2023-01-27T12:31:11.670Z,102052.09
2023-01-27T12:33:39.054Z,102053.41
2023-01-27T12:36:08.565Z,102055.59
2023-01-27T12:38:37.574Z,102048.34
2023-01-27T12:41:04.499Z,102060.09
2023-01-27T12:43:28.046Z,102060.22
2023-01-27T12:46:19.554Z,102056.03
2023-01-27T12:48:50.751Z,102055.22
2023-01-27T12:51:18.840Z,102056.34
2023-01-27T12:53:44.481Z,102054.47
2023-01-27T12:56:14.895Z,102057.03
2023-01-27T12:58:41.523Z,102062.38
2023-01-27T13:01:09.141Z,102055.69
2023-01-27T13:03:33.932Z,102061.47
2023-01-27T13:06:00.488Z,102054.44
2023-01-27T13:08:27.355Z,102060.63
2023-01-27T13:10:54.863Z,102060.09
2023-01-27T13:13:24.564Z,102056.91
2023-01-27T13:15:55.195Z,102063.69
2023-01-27T13:18:22.114Z,102063.28
2023-01-27T13:20:50.879Z,102060.34
2023-01-27T13:23:20.934Z,102052.72
2023-01-27T13:25:50.974Z,102059.00
2023-01-27T13:28:23.249Z,102050.91
2023-01-27T13:30:52.698Z,102052.34
2023-01-27T13:33:28.294Z,102055.00
2023-01-27T13:36:01.214Z,102054.47
2023-01-27T13:38:32.696Z,102059.47
2023-01-27T13:40:56.531Z,102058.47
2023-01-27T13:43:27.148Z,102062.25
2023-01-27T13:45:56.603Z,102055.19
2023-01-27T13:48:26.135Z,102058.31
2023-01-27T13:50:54.736Z,102066.28
2023-01-27T13:53:20.844Z,102064.69
2023-01-27T13:56:01.196Z,102057.44
2023-01-27T13:58:40.054Z,102064.19
2023-01-27T14:01:16.565Z,102062.34
2023-01-27T14:04:22.357Z,102057.50
2023-01-27T14:07:01.413Z,102058.91
2023-01-27T14:09:45.667Z,102061.59
2023-01-27T14:12:21.920Z,102068.53
2023-01-27T14:14:58.985Z,102073.34
2023-01-27T14:17:36.913Z,102068.88
2023-01-27T14:20:25.967Z,102078.00
2023-01-27T14:23:03.602Z,102078.19
2023-01-27T14:25:38.159Z,102073.69
2023-01-27T14:28:13.542Z,102081.94
2023-01-27T14:30:42.930Z,102081.91
2023-01-27T14:33:16.120Z,102074.41
2023-01-27T14:35:46.891Z,102080.41
2023-01-27T14:38:23.744Z,102088.38
2023-01-27T14:41:08.962Z,102086.53
2023-01-27T14:43:44.684Z,102087.47
2023-01-27T14:46:21.227Z,102082.69
2023-01-27T14:48:58.884Z,102092.06
2023-01-27T14:51:35.115Z,102091.88
2023-01-27T14:54:18.306Z,102094.84
2023-01-27T14:56:47.361Z,102099.22
2023-01-27T14:59:27.470Z,102113.63
2023-01-27T15:01:57.984Z,102106.47
2023-01-27T15:04:37.474Z,102107.91
2023-01-27T15:07:09.860Z,102105.13
2023-01-27T15:10:00.236Z,102112.75
2023-01-27T15:13:07.398Z,102112.16
2023-01-27T15:16:17.218Z,102111.16
2023-01-27T15:19:07.878Z,102114.38
2023-01-27T15:22:07.291Z,102119.91
2023-01-27T15:24:58.265Z,102128.81
2023-01-27T15:27:23.285Z,102125.63
2023-01-27T15:29:48.032Z,102127.31
2023-01-27T15:32:24.050Z,102130.19
2023-01-27T15:34:54.935Z,102128.75
2023-01-27T15:37:25.307Z,102130.59
2023-01-27T15:40:06.550Z,102140.06
2023-01-27T15:42:52.486Z,102133.53
2023-01-27T15:45:30.532Z,102132.09
2023-01-27T15:48:01.100Z,102134.16
2023-01-27T15:50:31.609Z,102136.91
2023-01-27T15:53:05.193Z,102145.72
2023-01-27T15:55:32.733Z,102146.69
2023-01-27T15:58:07.852Z,102146.78
2023-01-27T16:00:35.855Z,102147.84
2023-01-27T16:03:03.575Z,102156.44
2023-01-27T16:05:32.208Z,102163.47
2023-01-27T16:08:00.807Z,102162.34
2023-01-27T16:10:26.046Z,102157.97
2023-01-27T16:12:49.967Z,102160.25
2023-01-27T16:15:33.816Z,102156.66
2023-01-27T16:18:02.282Z,102153.22
2023-01-27T16:20:29.779Z,102158.81
2023-01-27T16:22:59.769Z,102160.06
2023-01-27T16:25:32.074Z,102170.59
2023-01-27T16:28:03.186Z,102159.75
2023-01-27T16:30:29.725Z,102157.38
2023-01-27T16:33:06.139Z,102164.91
2023-01-27T16:35:37.944Z,102164.00
2023-01-27T16:38:06.666Z,102170.72
2023-01-27T16:40:32.019Z,102172.75
2023-01-27T16:43:00.651Z,102179.09
2023-01-27T16:45:28.299Z,102177.50
2023-01-27T16:47:56.458Z,102181.84
2023-01-27T16:50:39.955Z,102186.50
2023-01-27T16:53:05.699Z,102192.97
2023-01-27T16:55:29.301Z,102206.03
2023-01-27T16:57:55.898Z,102197.41
2023-01-27T17:00:23.254Z,102198.75
2023-01-27T17:02:47.476Z,102195.25
2023-01-27T17:05:17.946Z,102193.16
2023-01-27T17:07:43.085Z,102197.41
2023-01-27T17:10:29.044Z,102199.41
2023-01-27T17:12:57.463Z,102202.91
2023-01-27T17:15:26.081Z,102202.81
2023-01-27T17:17:51.950Z,102196.72
2023-01-27T17:20:25.504Z,102202.06
2023-01-27T17:22:54.237Z,102208.66
2023-01-27T17:25:26.431Z,102208.84
2023-01-27T17:27:50.103Z,102205.19
2023-01-27T17:30:19.335Z,102214.28
2023-01-27T17:32:47.504Z,102209.22
2023-01-27T17:35:24.366Z,102206.00
2023-01-27T17:37:49.464Z,102205.03
2023-01-27T17:40:18.073Z,102213.78
2023-01-27T17:42:42.365Z,102210.41
2023-01-27T17:45:25.628Z,102214.97
2023-01-27T17:47:49.440Z,102205.56
2023-01-27T17:50:17.275Z,102210.97
2023-01-27T17:52:52.113Z,102221.59
2023-01-27T17:55:23.131Z,102231.78
2023-01-27T17:57:48.367Z,102223.91
2023-01-27T18:00:22.931Z,102228.47
2023-01-27T18:02:54.255Z,102237.50
2023-01-27T18:05:24.650Z,102235.00
2023-01-27T18:07:48.708Z,102238.63
2023-01-27T18:10:28.687Z,102243.56
2023-01-27T18:12:52.394Z,102248.69
2023-01-27T18:15:39.474Z,102252.47
2023-01-27T18:18:05.021Z,102254.41
2023-01-27T18:20:30.121Z,102255.59
2023-01-27T18:22:53.770Z,102262.44
2023-01-27T18:25:19.121Z,102259.03
2023-01-27T18:27:46.075Z,102257.34
2023-01-27T18:30:19.143Z,102265.53
2023-01-27T18:32:46.035Z,102259.09
2023-01-27T18:35:28.435Z,102267.09
2023-01-27T18:37:59.894Z,102273.28
2023-01-27T18:40:29.514Z,102272.47
2023-01-27T18:42:55.941Z,102282.22
2023-01-27T18:45:20.136Z,102284.69
2023-01-27T18:47:43.660Z,102284.38
2023-01-27T18:50:19.448Z,102289.59
2023-01-27T18:52:43.551Z,102283.75
2023-01-27T18:55:17.032Z,102283.56
2023-01-27T18:57:40.822Z,102281.63
2023-01-27T19:00:07.568Z,102290.66
2023-01-27T19:02:31.495Z,102293.47
2023-01-27T19:04:55.070Z,102295.31
2023-01-27T19:07:20.064Z,102290.91
2023-01-27T19:09:44.217Z,102294.22
2023-01-27T19:12:08.231Z,102292.22
2023-01-27T19:14:31.780Z,102299.50
2023-01-27T19:16:56.733Z,102297.44
2023-01-27T19:19:20.388Z,102293.19
2023-01-27T19:21:44.036Z,102299.28
2023-01-27T19:24:11.360Z,102303.69
2023-01-27T19:26:34.925Z,102308.72
2023-01-27T19:28:59.589Z,102302.44
2023-01-27T19:31:23.694Z,102305.19
2023-01-27T19:33:48.649Z,102302.97
2023-01-27T19:36:26.769Z,102300.09
2023-01-27T19:38:54.560Z,102306.81
2023-01-27T19:41:18.078Z,102306.00
2023-01-27T19:43:42.011Z,102306.00
2023-01-27T19:46:13.939Z,102306.06
2023-01-27T19:48:37.479Z,102303.47
2023-01-27T19:51:02.394Z,102304.41
2023-01-27T19:53:26.062Z,102306.06
2023-01-27T19:55:50.413Z,102300.09
2023-01-27T19:58:23.040Z,102306.94
2023-01-27T20:00:46.629Z,102310.13
2023-01-27T20:03:10.854Z,102306.88
2023-01-27T20:05:35.601Z,102307.19
2023-01-27T20:08:01.677Z,102305.91
2023-01-27T20:10:27.315Z,102318.69
2023-01-27T20:12:56.693Z,102327.09
2023-01-27T20:15:22.628Z,102307.81
2023-01-27T20:17:46.160Z,102309.84
2023-01-27T20:20:11.749Z,102313.84
2023-01-27T20:22:36.662Z,102317.41
2023-01-27T20:25:02.417Z,102323.69
2023-01-27T20:27:25.954Z,102324.44
2023-01-27T20:29:49.644Z,102325.13
2023-01-27T20:32:13.513Z,102325.41
2023-01-27T20:34:38.831Z,102333.34
2023-01-27T20:37:02.536Z,102331.75
2023-01-27T20:39:26.086Z,102331.69
2023-01-27T20:41:52.919Z,102332.75
2023-01-27T20:44:16.520Z,102336.19
2023-01-27T20:46:40.041Z,102336.31
2023-01-27T20:49:03.828Z,102337.44
2023-01-27T20:51:27.524Z,102343.19
2023-01-27T20:53:51.098Z,102334.59
2023-01-27T20:56:17.045Z,102339.53
2023-01-27T20:58:42.028Z,102336.13
2023-01-27T21:01:08.338Z,102332.78
2023-01-27T21:03:32.069Z,102332.56
2023-01-27T21:05:55.572Z,102340.69
2023-01-27T21:08:19.150Z,102339.72
2023-01-27T21:10:42.745Z,102336.94
2023-01-27T21:13:06.538Z,102338.69
2023-01-27T21:15:31.935Z,102340.75
2023-01-27T21:17:55.926Z,102343.09
2023-01-27T21:20:19.692Z,102341.84
2023-01-27T21:22:45.952Z,102342.31
2023-01-27T21:25:10.494Z,102339.59
2023-01-27T21:27:34.502Z,102343.50
2023-01-27T21:29:58.806Z,102343.31
2023-01-27T21:32:23.821Z,102340.41
2023-01-27T21:34:47.289Z,102340.13
2023-01-27T21:37:10.843Z,102348.41
2023-01-27T21:39:34.416Z,102345.97
2023-01-27T21:42:15.210Z,102344.41
2023-01-27T21:44:56.413Z,102348.44
2023-01-27T21:47:21.063Z,102340.81
2023-01-27T21:50:04.370Z,102343.19
2023-01-27T21:52:34.214Z,102340.75
2023-01-27T21:54:57.761Z,102339.72
2023-01-27T21:57:21.327Z,102334.13
2023-01-27T21:59:44.927Z,102341.28
2023-01-27T22:02:12.481Z,102347.34
2023-01-27T22:04:36.109Z,102346.97
2023-01-27T22:07:00.999Z,102340.69
2023-01-27T22:09:24.547Z,102340.56
2023-01-27T22:11:48.075Z,102341.78
2023-01-27T22:14:11.648Z,102336.47
2023-01-27T22:16:35.170Z,102346.44
2023-01-27T22:18:58.776Z,102346.22
2023-01-27T22:21:22.351Z,102340.38
2023-01-27T22:23:47.924Z,102335.97
2023-01-27T22:26:11.534Z,102337.69
2023-01-27T22:28:35.117Z,102340.38
2023-01-27T22:31:02.837Z,102336.41
2023-01-27T22:33:26.488Z,102333.75
2023-01-27T22:35:50.009Z,102331.06
2023-01-27T22:38:13.658Z,102331.09
2023-01-27T22:40:38.723Z,102333.72
2023-01-27T22:43:09.113Z,102331.38
2023-01-27T22:45:32.874Z,102337.41
2023-01-27T22:47:56.403Z,102341.13
2023-01-27T22:50:20.952Z,102337.63
2023-01-27T22:52:44.497Z,102342.06
2023-01-27T22:55:10.826Z,102334.19
2023-01-27T22:57:36.085Z,102333.97
2023-01-27T23:00:00.261Z,102334.34
2023-01-27T23:02:26.507Z,102332.41
2023-01-27T23:04:50.101Z,102328.09
2023-01-27T23:07:13.640Z,102322.22
2023-01-27T23:09:37.248Z,102318.41
2023-01-27T23:12:00.762Z,102321.84
2023-01-27T23:14:25.757Z,102319.50
2023-01-27T23:16:52.878Z,102314.25
2023-01-27T23:19:16.561Z,102308.06
2023-01-27T23:21:40.217Z,102312.66
2023-01-27T23:24:05.335Z,102313.47
2023-01-27T23:26:30.353Z,102302.03
2023-01-27T23:28:53.923Z,102306.56
2023-01-27T23:31:19.024Z,102305.13
2023-01-27T23:33:44.345Z,102300.53
2023-01-27T23:36:10.176Z,102303.28
2023-01-27T23:38:34.099Z,102303.22
2023-01-27T23:41:02.944Z,102296.34
2023-01-27T23:43:26.517Z,102300.72
2023-01-27T23:45:53.476Z,102300.00
2023-01-27T23:48:18.483Z,102299.09
2023-01-27T23:50:41.992Z,102300.00
2023-01-27T23:53:05.788Z,102312.34
2023-01-27T23:55:29.335Z,102307.22
2023-01-27T23:57:52.917Z,102305.47
